createdAt,value
2023-01-28T00:01:41.790Z,92.74
2023-01-28T00:04:27.014Z,93.11
2023-01-28T00:07:12.404Z,93.22
2023-01-28T00:09:57.798Z,93.39
2023-01-28T00:12:43.350Z,94.40
2023-01-28T00:15:28.477Z,94.23
2023-01-28T00:18:13.699Z,91.82
2023-01-28T00:21:06.776Z,93.91
2023-01-28T00:23:56.152Z,91.94
2023-01-28T00:26:41.779Z,91.52
2023-01-28T00:29:27.136Z,91.66
2023-01-28T00:32:12.528Z,92.14
2023-01-28T00:34:57.717Z,92.76
2023-01-28T00:37:46.123Z,88.99
2023-01-28T00:40:31.631Z,84.81
2023-01-28T00:43:16.987Z,89.41
2023-01-28T00:46:02.465Z,93.14
2023-01-28T00:48:48.313Z,93.98
2023-01-28T00:51:34.163Z,92.59
2023-01-28T00:54:19.531Z,91.29
2023-01-28T00:57:04.609Z,90.96
2023-01-28T00:59:49.548Z,89.56
2023-01-28T01:02:34.997Z,92.81
2023-01-28T01:05:20.177Z,91.72
2023-01-28T01:08:05.688Z,91.73
2023-01-28T01:10:50.926Z,94.77
2023-01-28T01:13:36.827Z,96.13
2023-01-28T01:16:24.219Z,94.43
2023-01-28T01:19:09.668Z,91.96
2023-01-28T01:21:56.276Z,90.24
2023-01-28T01:24:45.270Z,88.47
2023-01-28T01:27:31.761Z,91.15
2023-01-28T01:30:17.557Z,90.75
2023-01-28T01:33:02.979Z,93.89
2023-01-28T01:35:54.810Z,91.28
2023-01-28T01:38:41.050Z,83.88
2023-01-28T01:41:30.026Z,86.93
2023-01-28T01:44:53.861Z,91.41
2023-01-28T01:47:42.034Z,92.76
2023-01-28T01:50:39.654Z,93.66
2023-01-28T01:53:26.519Z,92.62
2023-01-28T01:56:16.958Z,93.14
2023-01-28T01:59:03.715Z,92.98
2023-01-28T02:01:49.508Z,91.12
2023-01-28T02:04:40.980Z,87.72
2023-01-28T02:07:27.029Z,87.60
2023-01-28T02:10:13.576Z,85.40
2023-01-28T02:12:59.320Z,86.67
2023-01-28T02:15:46.252Z,88.32
2023-01-28T02:18:32.730Z,90.66
2023-01-28T02:21:49.871Z,90.94
2023-01-28T02:24:37.800Z,93.26
2023-01-28T02:27:37.055Z,91.42
2023-01-28T02:30:33.289Z,90.66
2023-01-28T02:33:29.591Z,91.27
2023-01-28T02:36:34.584Z,91.17
2023-01-28T02:39:27.088Z,93.63
2023-01-28T02:42:23.876Z,92.69
2023-01-28T02:45:52.126Z,90.90
2023-01-28T02:48:37.091Z,85.96
2023-01-28T02:51:34.622Z,85.99
2023-01-28T02:54:45.229Z,85.93
2023-01-28T02:57:47.158Z,88.33
2023-01-28T03:00:43.989Z,86.51
2023-01-28T03:03:47.953Z,86.09
2023-01-28T03:06:48.351Z,89.27
2023-01-28T03:09:35.753Z,95.96
2023-01-28T03:12:43.250Z,96.64
2023-01-28T03:16:08.913Z,93.18
2023-01-28T03:19:13.542Z,92.35
2023-01-28T03:22:17.658Z,91.47
2023-01-28T03:25:21.713Z,92.38
2023-01-28T03:28:31.319Z,92.42
2023-01-28T03:31:37.094Z,90.41
2023-01-28T03:34:41.666Z,89.74
2023-01-28T03:37:29.909Z,91.32
2023-01-28T03:40:15.507Z,90.55
2023-01-28T03:43:00.955Z,88.74
2023-01-28T03:45:46.831Z,88.89
2023-01-28T03:48:33.412Z,89.38
2023-01-28T03:51:18.533Z,89.19
2023-01-28T03:54:03.939Z,89.61
2023-01-28T03:56:49.603Z,90.16
2023-01-28T03:59:35.145Z,90.53
2023-01-28T04:02:22.414Z,90.93
2023-01-28T04:05:12.987Z,91.85
2023-01-28T04:07:58.229Z,90.07
2023-01-28T04:10:44.023Z,89.50
2023-01-28T04:13:29.117Z,89.05
2023-01-28T04:16:16.458Z,89.24
2023-01-28T04:19:01.858Z,90.44
2023-01-28T04:21:49.100Z,89.00
2023-01-28T04:24:34.719Z,88.54
2023-01-28T04:27:20.239Z,88.09
2023-01-28T04:30:05.784Z,89.86
2023-01-28T04:32:51.222Z,89.08
2023-01-28T04:35:36.487Z,89.44
2023-01-28T04:38:22.121Z,89.63
2023-01-28T04:41:07.543Z,91.11
2023-01-28T04:43:52.926Z,91.15
2023-01-28T04:46:40.281Z,91.52
2023-01-28T04:49:25.696Z,91.81
2023-01-28T04:52:11.091Z,91.76
2023-01-28T04:54:56.478Z,92.58
2023-01-28T04:57:41.782Z,92.24
2023-01-28T05:00:27.666Z,94.01
2023-01-28T05:03:12.934Z,95.04
2023-01-28T05:05:58.197Z,93.88
2023-01-28T05:08:43.855Z,92.60
2023-01-28T05:11:29.065Z,91.83
2023-01-28T05:14:14.563Z,92.39
2023-01-28T05:16:59.848Z,94.45
2023-01-28T05:19:46.393Z,95.56
2023-01-28T05:22:33.958Z,95.43
2023-01-28T05:25:20.257Z,96.38
2023-01-28T05:28:05.946Z,97.52
2023-01-28T05:30:51.186Z,97.76
2023-01-28T05:33:36.860Z,97.71
2023-01-28T05:36:22.300Z,97.77
2023-01-28T05:39:07.919Z,98.82
2023-01-28T05:41:53.668Z,99.77
2023-01-28T05:44:39.554Z,99.62
2023-01-28T05:47:24.935Z,98.13
2023-01-28T05:50:13.265Z,95.39
2023-01-28T05:52:58.838Z,94.92
2023-01-28T05:55:44.022Z,95.04
2023-01-28T05:58:32.202Z,94.88
2023-01-28T06:01:17.968Z,94.66
2023-01-28T06:04:04.227Z,94.52
2023-01-28T06:06:49.806Z,96.62
2023-01-28T06:09:35.185Z,98.46
2023-01-28T06:12:20.772Z,97.00
2023-01-28T06:15:06.852Z,95.36
2023-01-28T06:17:52.038Z,94.44
2023-01-28T06:20:37.714Z,93.75
2023-01-28T06:23:22.805Z,95.29
2023-01-28T06:26:08.017Z,95.90
2023-01-28T06:28:52.981Z,95.87
2023-01-28T06:31:38.435Z,96.13
2023-01-28T06:34:23.856Z,96.69
2023-01-28T06:37:09.192Z,97.45
2023-01-28T06:39:54.334Z,97.13
2023-01-28T06:42:39.487Z,97.84
2023-01-28T06:45:26.380Z,98.18
2023-01-28T06:48:13.111Z,99.06
2023-01-28T06:50:58.307Z,99.13
2023-01-28T06:53:45.989Z,100.46
2023-01-28T06:56:32.101Z,100.66
2023-01-28T06:59:17.619Z,99.87
2023-01-28T07:02:03.285Z,100.03
2023-01-28T07:04:48.234Z,99.42
2023-01-28T07:07:33.944Z,101.37
2023-01-28T07:10:20.848Z,100.99
2023-01-28T07:13:07.252Z,101.12
2023-01-28T07:15:52.437Z,101.62
2023-01-28T07:18:37.659Z,103.23
2023-01-28T07:21:22.908Z,104.50
2023-01-28T07:24:08.602Z,104.47
2023-01-28T07:26:54.190Z,104.82
2023-01-28T07:29:39.770Z,105.14
2023-01-28T07:32:27.538Z,106.21
2023-01-28T07:35:13.451Z,107.31
2023-01-28T07:38:01.097Z,107.20
2023-01-28T07:40:47.066Z,107.75
2023-01-28T07:43:32.344Z,107.62
2023-01-28T07:46:18.086Z,107.98
2023-01-28T07:49:03.015Z,108.29
2023-01-28T07:51:50.525Z,109.01
2023-01-28T07:54:35.938Z,109.73
2023-01-28T07:57:23.636Z,108.65
2023-01-28T08:00:09.425Z,108.74
2023-01-28T08:03:00.412Z,108.56
2023-01-28T08:05:49.743Z,109.33
2023-01-28T08:08:34.945Z,108.94
2023-01-28T08:11:20.922Z,109.26
2023-01-28T08:14:06.563Z,108.52
2023-01-28T08:16:53.019Z,109.05
2023-01-28T08:19:38.311Z,108.90
2023-01-28T08:22:27.840Z,109.15
2023-01-28T08:25:13.761Z,107.53
2023-01-28T08:28:00.702Z,109.17
2023-01-28T08:30:46.818Z,108.74
2023-01-28T08:33:32.429Z,108.08
2023-01-28T08:36:17.741Z,107.69
2023-01-28T08:39:02.987Z,107.27
2023-01-28T08:41:48.405Z,105.70
2023-01-28T08:44:34.303Z,105.19
2023-01-28T08:47:20.401Z,104.74
2023-01-28T08:50:06.261Z,103.53
2023-01-28T08:52:59.809Z,102.12
2023-01-28T08:55:47.467Z,102.47
2023-01-28T08:58:32.523Z,101.43
2023-01-28T09:01:17.956Z,101.77
2023-01-28T09:04:04.360Z,100.58
2023-01-28T09:06:49.753Z,99.58
2023-01-28T09:09:35.507Z,99.29
2023-01-28T09:12:21.211Z,100.09
2023-01-28T09:15:07.300Z,99.06
2023-01-28T09:17:58.533Z,97.74
2023-01-28T09:20:44.121Z,97.61
2023-01-28T09:23:25.930Z,96.79
2023-01-28T09:26:00.151Z,95.72
2023-01-28T09:28:26.837Z,96.61
2023-01-28T09:30:53.594Z,94.94
2023-01-28T09:33:20.478Z,96.50
2023-01-28T09:35:47.104Z,95.59
2023-01-28T09:38:13.905Z,95.60
2023-01-28T09:40:44.594Z,95.28
2023-01-28T09:43:32.588Z,94.30
2023-01-28T09:46:02.321Z,94.56
2023-01-28T09:48:38.191Z,94.78
2023-01-28T09:51:09.732Z,94.48
2023-01-28T09:53:44.934Z,94.78
2023-01-28T09:56:19.141Z,95.64
2023-01-28T09:58:45.880Z,95.38
2023-01-28T10:01:30.449Z,95.10
2023-01-28T10:04:23.064Z,93.46
2023-01-28T10:06:56.207Z,93.49
2023-01-28T10:09:42.605Z,92.90
2023-01-28T10:12:31.130Z,91.91
2023-01-28T10:15:35.680Z,89.81
2023-01-28T10:18:17.228Z,88.94
2023-01-28T10:21:05.703Z,88.06
2023-01-28T10:23:46.325Z,84.35
2023-01-28T10:26:42.581Z,84.06
2023-01-28T10:29:24.044Z,81.26
2023-01-28T10:32:05.669Z,77.43
2023-01-28T10:34:32.376Z,80.32
2023-01-28T10:36:59.231Z,81.86
2023-01-28T10:39:27.086Z,80.30
2023-01-28T10:41:58.755Z,77.27
2023-01-28T10:44:36.015Z,76.27
2023-01-28T10:47:10.278Z,74.02
2023-01-28T10:49:44.153Z,70.47
2023-01-28T10:52:15.063Z,75.97
2023-01-28T10:54:41.696Z,76.74
2023-01-28T10:57:13.407Z,78.97
2023-01-28T10:59:41.849Z,82.00
2023-01-28T11:02:36.967Z,82.24
2023-01-28T11:05:20.799Z,82.07
2023-01-28T11:07:49.165Z,82.46
2023-01-28T11:10:37.052Z,81.69
2023-01-28T11:13:05.980Z,77.13
2023-01-28T11:15:33.679Z,76.23
2023-01-28T11:18:04.106Z,75.21
2023-01-28T11:20:49.082Z,74.23
2023-01-28T11:23:33.652Z,73.10
2023-01-28T11:26:05.253Z,73.93
2023-01-28T11:28:32.955Z,74.47
2023-01-28T11:31:03.181Z,76.72
2023-01-28T11:33:43.348Z,74.92
2023-01-28T11:36:18.079Z,72.65
2023-01-28T11:38:56.816Z,74.92
2023-01-28T11:41:33.033Z,77.29
2023-01-28T11:44:09.705Z,77.78
2023-01-28T11:47:05.823Z,74.82
2023-01-28T11:49:53.941Z,73.42
2023-01-28T11:52:48.605Z,74.87
2023-01-28T11:55:27.846Z,75.22
2023-01-28T11:58:15.285Z,72.35
2023-01-28T12:01:01.740Z,70.54
2023-01-28T12:03:41.098Z,67.93
2023-01-28T12:06:10.730Z,65.46
2023-01-28T12:08:42.079Z,67.21
2023-01-28T12:11:08.742Z,65.77
2023-01-28T12:14:11.706Z,66.30
2023-01-28T12:17:00.607Z,65.32
2023-01-28T12:19:53.718Z,65.82
2023-01-28T12:22:43.187Z,67.62
2023-01-28T12:25:25.943Z,67.78
2023-01-28T12:28:30.756Z,66.66
2023-01-28T12:31:37.925Z,65.42
2023-01-28T12:34:29.524Z,66.98
2023-01-28T12:37:14.132Z,66.36
2023-01-28T12:39:58.972Z,65.45
2023-01-28T12:42:40.875Z,66.45
2023-01-28T12:45:16.657Z,67.93
2023-01-28T12:47:55.453Z,68.46
2023-01-28T12:50:29.357Z,70.87
2023-01-28T12:53:01.490Z,72.98
2023-01-28T12:55:54.571Z,71.79
2023-01-28T12:58:43.341Z,72.03
2023-01-28T13:01:16.207Z,72.35
2023-01-28T13:04:05.624Z,73.37
2023-01-28T13:06:41.618Z,74.18
2023-01-28T13:09:21.073Z,74.91
2023-01-28T13:11:51.907Z,75.14
2023-01-28T13:14:22.752Z,76.86
2023-01-28T13:16:49.423Z,78.86
2023-01-28T13:19:19.333Z,80.21
2023-01-28T13:21:49.915Z,79.65
2023-01-28T13:24:16.706Z,78.73
2023-01-28T13:26:55.148Z,78.24
2023-01-28T13:29:25.125Z,78.56
2023-01-28T13:31:54.779Z,77.10
2023-01-28T13:34:32.991Z,77.11
2023-01-28T13:37:07.258Z,78.66
2023-01-28T13:39:35.983Z,79.72
2023-01-28T13:42:27.347Z,79.91
2023-01-28T13:44:55.289Z,81.07
2023-01-28T13:47:25.485Z,81.69
2023-01-28T13:49:59.648Z,81.41
2023-01-28T13:52:30.115Z,82.36
2023-01-28T13:55:07.667Z,82.73
2023-01-28T13:58:05.579Z,82.10
2023-01-28T14:00:44.454Z,78.87
2023-01-28T14:03:39.288Z,77.73
2023-01-28T14:06:37.189Z,74.19
2023-01-28T14:09:41.836Z,71.97
2023-01-28T14:12:23.919Z,70.12
2023-01-28T14:15:16.575Z,69.01
2023-01-28T14:17:53.803Z,67.30
2023-01-28T14:20:29.311Z,64.72
2023-01-28T14:23:02.355Z,64.97
2023-01-28T14:26:09.657Z,65.11
2023-01-28T14:28:54.885Z,68.16
2023-01-28T14:31:48.295Z,70.22
2023-01-28T14:34:30.936Z,72.07
2023-01-28T14:37:01.773Z,74.28
2023-01-28T14:39:33.533Z,76.70
2023-01-28T14:42:02.776Z,77.95
2023-01-28T14:44:33.840Z,78.15
2023-01-28T14:47:07.661Z,79.82
2023-01-28T14:50:00.615Z,80.66
2023-01-28T14:52:39.298Z,81.55
2023-01-28T14:55:28.315Z,83.38
2023-01-28T14:58:03.589Z,84.85
2023-01-28T15:00:34.172Z,86.48
2023-01-28T15:03:23.150Z,86.96
2023-01-28T15:06:24.175Z,86.73
2023-01-28T15:08:52.386Z,86.40
2023-01-28T15:11:28.423Z,86.83
2023-01-28T15:14:01.768Z,87.56
2023-01-28T15:16:31.654Z,88.04
2023-01-28T15:19:04.431Z,88.57
2023-01-28T15:21:31.265Z,88.80
2023-01-28T15:24:00.589Z,88.40
2023-01-28T15:26:33.470Z,88.85
2023-01-28T15:29:00.883Z,88.99
2023-01-28T15:31:33.607Z,89.20
2023-01-28T15:34:12.168Z,89.34
2023-01-28T15:36:41.468Z,90.63
2023-01-28T15:39:20.439Z,91.00
2023-01-28T15:41:54.557Z,91.53
2023-01-28T15:44:51.501Z,91.41
2023-01-28T15:47:24.057Z,92.01
2023-01-28T15:49:56.411Z,93.17
2023-01-28T15:52:34.903Z,92.59
2023-01-28T15:55:03.022Z,93.59
2023-01-28T15:57:32.401Z,93.45
2023-01-28T16:00:22.805Z,93.59
2023-01-28T16:02:52.253Z,93.55
2023-01-28T16:05:36.277Z,93.51
2023-01-28T16:08:18.617Z,94.23
2023-01-28T16:10:52.979Z,93.04
2023-01-28T16:13:22.802Z,93.21
2023-01-28T16:15:53.018Z,93.07
2023-01-28T16:18:39.013Z,93.36
2023-01-28T16:21:10.632Z,93.66
2023-01-28T16:23:39.458Z,93.17
2023-01-28T16:26:27.619Z,93.72
2023-01-28T16:28:54.529Z,93.19
2023-01-28T16:31:21.514Z,93.32
2023-01-28T16:33:48.359Z,93.27
2023-01-28T16:36:19.556Z,93.63
2023-01-28T16:38:46.413Z,93.84
2023-01-28T16:41:18.510Z,94.17
2023-01-28T16:43:45.142Z,93.80
2023-01-28T16:46:12.817Z,94.16
2023-01-28T16:48:39.808Z,94.46
2023-01-28T16:51:06.669Z,95.59
2023-01-28T16:53:34.159Z,95.53
2023-01-28T16:56:01.106Z,95.44
2023-01-28T16:58:28.639Z,95.70
2023-01-28T17:00:55.341Z,96.56
2023-01-28T17:03:23.242Z,95.89
2023-01-28T17:05:49.919Z,96.75
2023-01-28T17:08:17.042Z,97.17
2023-01-28T17:10:43.822Z,97.55
2023-01-28T17:13:10.523Z,98.32
2023-01-28T17:15:37.311Z,98.15
2023-01-28T17:18:04.201Z,98.79
2023-01-28T17:20:30.861Z,98.65
2023-01-28T17:22:58.494Z,98.65
2023-01-28T17:25:25.488Z,98.86
2023-01-28T17:27:52.196Z,99.02
2023-01-28T17:30:20.434Z,99.48
2023-01-28T17:32:47.223Z,100.27
2023-01-28T17:35:14.939Z,100.38
2023-01-28T17:37:41.927Z,100.52
2023-01-28T17:40:12.325Z,101.23
2023-01-28T17:42:39.263Z,101.38
2023-01-28T17:45:06.343Z,102.08
2023-01-28T17:47:33.164Z,102.88
2023-01-28T17:50:00.190Z,103.70
2023-01-28T17:52:27.060Z,104.77
2023-01-28T17:54:53.807Z,105.13
2023-01-28T17:57:21.145Z,105.61
2023-01-28T17:59:48.232Z,105.85
2023-01-28T18:02:15.955Z,106.27
2023-01-28T18:04:43.517Z,106.75
2023-01-28T18:07:11.124Z,106.72
2023-01-28T18:09:41.636Z,107.39
2023-01-28T18:12:10.933Z,107.79
2023-01-28T18:14:38.833Z,107.96
2023-01-28T18:17:07.646Z,107.99
2023-01-28T18:19:34.942Z,108.29
2023-01-28T18:22:01.720Z,108.13
2023-01-28T18:24:30.227Z,108.61
2023-01-28T18:26:59.761Z,108.65
2023-01-28T18:29:28.800Z,108.36
2023-01-28T18:31:57.563Z,108.24
2023-01-28T18:34:26.682Z,108.75
2023-01-28T18:36:53.889Z,108.59
2023-01-28T18:39:21.530Z,108.83
2023-01-28T18:41:48.222Z,108.94
2023-01-28T18:44:15.858Z,109.26
2023-01-28T18:46:43.016Z,109.82
2023-01-28T18:49:10.210Z,110.55
2023-01-28T18:51:37.226Z,110.67
2023-01-28T18:54:05.354Z,110.39
2023-01-28T18:56:32.808Z,110.42
2023-01-28T18:59:02.853Z,111.03
2023-01-28T19:01:30.339Z,111.28
2023-01-28T19:03:58.821Z,111.35
2023-01-28T19:06:27.729Z,111.15
2023-01-28T19:08:57.200Z,112.13
2023-01-28T19:11:25.224Z,111.84
2023-01-28T19:13:52.302Z,111.77
2023-01-28T19:16:20.011Z,112.32
2023-01-28T19:18:59.146Z,112.35
2023-01-28T19:21:29.468Z,112.63
2023-01-28T19:23:58.582Z,112.89
2023-01-28T19:26:26.793Z,113.30
2023-01-28T19:28:54.504Z,113.24
2023-01-28T19:31:22.365Z,114.15
2023-01-28T19:33:53.661Z,115.77
2023-01-28T19:36:20.320Z,113.68
2023-01-28T19:38:47.136Z,113.87
2023-01-28T19:41:16.224Z,114.41
2023-01-28T19:43:45.549Z,115.09
2023-01-28T19:46:16.062Z,115.57
2023-01-28T19:48:43.761Z,115.40
2023-01-28T19:51:12.276Z,116.40
2023-01-28T19:53:40.140Z,117.15
2023-01-28T19:56:09.933Z,117.35
2023-01-28T19:58:38.714Z,118.08
2023-01-28T20:01:06.603Z,118.99
2023-01-28T20:03:33.673Z,118.99
2023-01-28T20:06:06.358Z,118.99
2023-01-28T20:08:33.967Z,118.99
2023-01-28T20:11:09.713Z,118.99
2023-01-28T20:13:38.592Z,118.99
2023-01-28T20:16:13.152Z,118.99
2023-01-28T20:18:39.948Z,118.92
2023-01-28T20:21:06.810Z,118.99
2023-01-28T20:23:34.436Z,118.79
2023-01-28T20:26:01.299Z,118.89
2023-01-28T20:28:28.195Z,118.98
2023-01-28T20:30:55.902Z,118.99
2023-01-28T20:33:23.729Z,118.99
2023-01-28T20:35:50.410Z,118.99
2023-01-28T20:38:17.186Z,118.99
2023-01-28T20:40:44.221Z,118.99
2023-01-28T20:43:11.077Z,118.99
2023-01-28T20:45:38.983Z,118.99
2023-01-28T20:48:05.842Z,118.99
2023-01-28T20:50:33.831Z,118.99
2023-01-28T20:53:00.519Z,118.99
2023-01-28T20:55:28.582Z,118.99
2023-01-28T20:57:55.281Z,118.99
2023-01-28T21:00:22.366Z,118.99
2023-01-28T21:02:49.146Z,118.99
2023-01-28T21:05:16.073Z,118.99
2023-01-28T21:07:42.920Z,118.99
2023-01-28T21:10:10.186Z,118.99
2023-01-28T21:12:36.994Z,118.99
2023-01-28T21:15:04.222Z,118.99
2023-01-28T21:17:31.895Z,118.99
2023-01-28T21:19:59.633Z,118.99
2023-01-28T21:22:26.915Z,118.99
2023-01-28T21:24:53.600Z,118.99
2023-01-28T21:27:20.313Z,118.99
2023-01-28T21:29:47.130Z,118.99
2023-01-28T21:32:13.891Z,118.99
2023-01-28T21:34:40.606Z,118.99
2023-01-28T21:37:07.762Z,118.99
2023-01-28T21:39:34.891Z,118.99
2023-01-28T21:42:01.587Z,118.99
2023-01-28T21:44:28.324Z,118.99
2023-01-28T21:46:55.001Z,118.99
2023-01-28T21:49:21.799Z,118.99
2023-01-28T21:51:48.702Z,118.99
2023-01-28T21:54:17.705Z,118.99
2023-01-28T21:56:49.762Z,118.99
2023-01-28T21:59:29.593Z,118.99
2023-01-28T22:01:59.390Z,118.99
2023-01-28T22:04:29.097Z,118.99
2023-01-28T22:06:56.316Z,118.99
2023-01-28T22:09:23.356Z,118.99
2023-01-28T22:11:51.635Z,118.99
2023-01-28T22:14:18.742Z,118.99
2023-01-28T22:16:45.811Z,118.99
2023-01-28T22:19:13.078Z,118.99
2023-01-28T22:21:41.872Z,118.99
2023-01-28T22:24:15.156Z,118.99
2023-01-28T22:26:42.607Z,118.99
2023-01-28T22:29:10.458Z,118.99
2023-01-28T22:31:37.742Z,118.99
2023-01-28T22:34:05.675Z,118.99
2023-01-28T22:36:34.696Z,118.99
2023-01-28T22:39:03.520Z,118.99
2023-01-28T22:41:30.841Z,118.99
2023-01-28T22:43:57.921Z,118.99
2023-01-28T22:46:25.179Z,118.99
2023-01-28T22:48:51.996Z,118.99
2023-01-28T22:51:38.891Z,118.99
2023-01-28T22:54:07.275Z,118.99
2023-01-28T22:56:34.063Z,118.99
2023-01-28T22:59:02.899Z,118.99
2023-01-28T23:01:30.198Z,118.99
2023-01-28T23:03:57.203Z,118.99
2023-01-28T23:06:26.505Z,118.99
2023-01-28T23:08:54.161Z,118.99
2023-01-28T23:11:27.742Z,118.99
2023-01-28T23:14:18.965Z,118.99
2023-01-28T23:17:04.225Z,118.99
2023-01-28T23:19:49.655Z,118.99
2023-01-28T23:22:40.455Z,118.99
2023-01-28T23:25:07.619Z,118.99
2023-01-28T23:27:34.478Z,118.99
2023-01-28T23:30:01.410Z,118.99
2023-01-28T23:32:28.286Z,118.99
2023-01-28T23:34:55.097Z,118.99
2023-01-28T23:37:21.888Z,118.99
2023-01-28T23:39:48.654Z,118.99
2023-01-28T23:42:18.337Z,118.99
2023-01-28T23:44:45.075Z,118.99
2023-01-28T23:47:12.471Z,118.99
2023-01-28T23:49:40.407Z,118.99
2023-01-28T23:52:08.385Z,118.99
2023-01-28T23:54:35.850Z,118.99
2023-01-28T23:57:03.403Z,118.99
2023-01-28T23:59:30.242Z,118.99
